sensor_id;sensor_type;location;lat;lon;timestamp;pressure;altitude;pressure_sealevel;temperature;humidity
15260;BME280;34462;51.368;12.364;2023-04-29T00:00:22;19779.28;;;-141.84;89.73
15260;BME280;34462;51.368;12.364;2023-04-29T00:02:50;19748.81;;;-141.84;90.69
15260;BME280;34462;51.368;12.364;2023-04-29T00:05:18;19769.13;;;-141.84;91.05
15260;BME280;34462;51.368;12.364;2023-04-29T00:07:47;19756.94;;;-141.84;91.35
15260;BME280;34462;51.368;12.364;2023-04-29T00:10:19;19781.31;;;-141.84;91.92
15260;BME280;34462;51.368;12.364;2023-04-29T00:12:48;19754.91;;;-141.84;91.96
15260;BME280;34462;51.368;12.364;2023-04-29T00:15:17;19744.75;;;-141.84;92.33
15260;BME280;34462;51.368;12.364;2023-04-29T00:17:47;19752.88;;;-141.84;92.99
15260;BME280;34462;51.368;12.364;2023-04-29T00:20:15;19783.34;;;-141.84;93.24
15260;BME280;34462;51.368;12.364;2023-04-29T00:22:44;19777.25;;;-141.84;93.28
15260;BME280;34462;51.368;12.364;2023-04-29T00:25:12;19756.94;;;-141.84;93.20
15260;BME280;34462;51.368;12.364;2023-04-29T00:27:41;19748.81;;;-141.84;93.33
15260;BME280;34462;51.368;12.364;2023-04-29T00:30:10;19689.88;;;-141.84;94.49
15260;BME280;34462;51.368;12.364;2023-04-29T00:32:38;19712.22;;;-141.84;94.41
15260;BME280;34462;51.368;12.364;2023-04-29T00:35:08;19732.53;;;-141.84;95.00
15260;BME280;34462;51.368;12.364;2023-04-29T00:37:37;19681.75;;;-141.84;95.63
15260;BME280;34462;51.368;12.364;2023-04-29T00:40:07;19704.09;;;-141.84;96.01
15260;BME280;34462;51.368;12.364;2023-04-29T00:42:36;19651.25;;;-141.84;96.45
15260;BME280;34462;51.368;12.364;2023-04-29T00:45:05;19630.94;;;-141.84;97.02
15260;BME280;34462;51.368;12.364;2023-04-29T00:47:34;19635.00;;;-141.84;97.45
15260;BME280;34462;51.368;12.364;2023-04-29T00:50:08;19641.09;;;-141.84;97.80
15260;BME280;34462;51.368;12.364;2023-04-29T00:52:38;19622.81;;;-141.84;98.00
15260;BME280;34462;51.368;12.364;2023-04-29T00:55:07;19618.75;;;-141.84;98.19
15260;BME280;34462;51.368;12.364;2023-04-29T00:57:36;19586.22;;;-141.84;98.48
15260;BME280;34462;51.368;12.364;2023-04-29T01:00:06;19572.00;;;-141.84;98.95
15260;BME280;34462;51.368;12.364;2023-04-29T01:02:36;19590.28;;;-141.84;99.46
15260;BME280;34462;51.368;12.364;2023-04-29T01:05:05;19576.06;;;-141.84;99.75
15260;BME280;34462;51.368;12.364;2023-04-29T01:07:51;19561.84;;;-141.84;99.75
15260;BME280;34462;51.368;12.364;2023-04-29T01:10:28;19543.53;;;-141.84;99.73
15260;BME280;34462;51.368;12.364;2023-04-29T01:13:08;19531.34;;;-141.84;99.90
15260;BME280;34462;51.368;12.364;2023-04-29T01:15:50;19478.50;;;-141.84;100.00
15260;BME280;34462;51.368;12.364;2023-04-29T01:18:29;19529.31;;;-141.84;100.00
15260;BME280;34462;51.368;12.364;2023-04-29T01:21:00;19511.03;;;-141.84;100.00
15260;BME280;34462;51.368;12.364;2023-04-29T01:23:30;19460.22;;;-141.84;100.00
15260;BME280;34462;51.368;12.364;2023-04-29T01:25:58;19490.72;;;-141.84;100.00
15260;BME280;34462;51.368;12.364;2023-04-29T01:28:42;19474.44;;;-141.84;100.00
15260;BME280;34462;51.368;12.364;2023-04-29T01:31:18;19480.53;;;-141.84;100.00
15260;BME280;34462;51.368;12.364;2023-04-29T01:34:00;19478.50;;;-141.84;100.00
15260;BME280;34462;51.368;12.364;2023-04-29T01:36:43;19500.88;;;-141.84;100.00
15260;BME280;34462;51.368;12.364;2023-04-29T01:39:27;19435.84;;;-141.84;100.00
15260;BME280;34462;51.368;12.364;2023-04-29T01:42:15;19492.75;;;-141.84;100.00
15260;BME280;34462;51.368;12.364;2023-04-29T01:44:48;19496.81;;;-141.84;100.00
15260;BME280;34462;51.368;12.364;2023-04-29T01:47:20;19466.31;;;-141.84;100.00
15260;BME280;34462;51.368;12.364;2023-04-29T01:49:48;19472.41;;;-141.84;100.00
15260;BME280;34462;51.368;12.364;2023-04-29T01:52:17;19482.56;;;-141.84;100.00
15260;BME280;34462;51.368;12.364;2023-04-29T01:54:47;19468.34;;;-141.84;100.00
15260;BME280;34462;51.368;12.364;2023-04-29T01:57:15;19460.22;;;-141.84;100.00
15260;BME280;34462;51.368;12.364;2023-04-29T01:59:43;19456.16;;;-141.84;100.00
15260;BME280;34462;51.368;12.364;2023-04-29T02:02:11;19433.81;;;-141.84;100.00
15260;BME280;34462;51.368;12.364;2023-04-29T02:04:42;19431.78;;;-141.84;100.00
15260;BME280;34462;51.368;12.364;2023-04-29T02:07:10;19450.06;;;-141.84;100.00
15260;BME280;34462;51.368;12.364;2023-04-29T02:09:38;19454.13;;;-141.84;100.00
15260;BME280;34462;51.368;12.364;2023-04-29T02:12:08;19421.63;;;-141.84;100.00
15260;BME280;34462;51.368;12.364;2023-04-29T02:14:36;19435.84;;;-141.84;100.00
15260;BME280;34462;51.368;12.364;2023-04-29T02:17:04;19421.63;;;-141.84;100.00
15260;BME280;34462;51.368;12.364;2023-04-29T02:19:32;19413.47;;;-141.84;100.00
15260;BME280;34462;51.368;12.364;2023-04-29T02:22:02;19405.34;;;-141.84;100.00
15260;BME280;34462;51.368;12.364;2023-04-29T02:24:30;19407.38;;;-141.84;100.00
15260;BME280;34462;51.368;12.364;2023-04-29T02:26:58;19417.56;;;-141.84;100.00
15260;BME280;34462;51.368;12.364;2023-04-29T02:29:27;19356.59;;;-141.84;100.00
15260;BME280;34462;51.368;12.364;2023-04-29T02:31:56;19380.97;;;-141.84;100.00
15260;BME280;34462;51.368;12.364;2023-04-29T02:34:25;19366.75;;;-141.84;100.00
15260;BME280;34462;51.368;12.364;2023-04-29T02:36:53;19332.19;;;-141.84;100.00
15260;BME280;34462;51.368;12.364;2023-04-29T02:39:22;19344.41;;;-141.84;100.00
15260;BME280;34462;51.368;12.364;2023-04-29T02:41:53;19348.47;;;-141.84;100.00
15260;BME280;34462;51.368;12.364;2023-04-29T02:44:22;19336.25;;;-141.84;100.00
15260;BME280;34462;51.368;12.364;2023-04-29T02:46:52;19366.75;;;-141.84;100.00
15260;BME280;34462;51.368;12.364;2023-04-29T02:49:20;19348.47;;;-141.84;100.00
15260;BME280;34462;51.368;12.364;2023-04-29T02:51:48;19360.66;;;-141.84;100.00
15260;BME280;34462;51.368;12.364;2023-04-29T02:54:16;19340.31;;;-141.84;100.00
15260;BME280;34462;51.368;12.364;2023-04-29T02:56:44;19330.16;;;-141.84;100.00
15260;BME280;34462;51.368;12.364;2023-04-29T02:59:13;19334.22;;;-141.84;100.00
15260;BME280;34462;51.368;12.364;2023-04-29T03:01:41;19334.22;;;-141.84;100.00
15260;BME280;34462;51.368;12.364;2023-04-29T03:04:10;19336.25;;;-141.84;100.00
15260;BME280;34462;51.368;12.364;2023-04-29T03:06:39;19287.50;;;-141.84;100.00
15260;BME280;34462;51.368;12.364;2023-04-29T03:09:07;19293.59;;;-141.84;100.00
15260;BME280;34462;51.368;12.364;2023-04-29T03:11:36;19330.16;;;-141.84;100.00
15260;BME280;34462;51.368;12.364;2023-04-29T03:14:04;19326.09;;;-141.84;100.00
15260;BME280;34462;51.368;12.364;2023-04-29T03:16:32;19293.59;;;-141.84;100.00
15260;BME280;34462;51.368;12.364;2023-04-29T03:19:01;19289.53;;;-141.84;100.00
15260;BME280;34462;51.368;12.364;2023-04-29T03:21:30;19291.56;;;-141.84;100.00
15260;BME280;34462;51.368;12.364;2023-04-29T03:23:59;19297.66;;;-141.84;100.00
15260;BME280;34462;51.368;12.364;2023-04-29T03:26:27;19293.59;;;-141.84;100.00
15260;BME280;34462;51.368;12.364;2023-04-29T03:28:55;19285.47;;;-141.84;100.00
15260;BME280;34462;51.368;12.364;2023-04-29T03:31:24;19301.72;;;-141.84;100.00
15260;BME280;34462;51.368;12.364;2023-04-29T03:33:53;19257.00;;;-141.84;100.00
15260;BME280;34462;51.368;12.364;2023-04-29T03:36:21;19305.78;;;-141.84;100.00
15260;BME280;34462;51.368;12.364;2023-04-29T03:38:50;19289.53;;;-141.84;100.00
15260;BME280;34462;51.368;12.364;2023-04-29T03:41:19;19259.03;;;-141.84;100.00
15260;BME280;34462;51.368;12.364;2023-04-29T03:43:50;19250.91;;;-141.84;100.00
15260;BME280;34462;51.368;12.364;2023-04-29T03:46:20;19313.91;;;-141.84;100.00
15260;BME280;34462;51.368;12.364;2023-04-29T03:48:48;19330.16;;;-141.84;100.00
15260;BME280;34462;51.368;12.364;2023-04-29T03:51:17;19305.78;;;-141.84;100.00
15260;BME280;34462;51.368;12.364;2023-04-29T03:53:46;19322.03;;;-141.84;100.00
15260;BME280;34462;51.368;12.364;2023-04-29T03:56:16;19303.75;;;-141.84;100.00
15260;BME280;34462;51.368;12.364;2023-04-29T03:58:44;19293.59;;;-141.84;100.00
15260;BME280;34462;51.368;12.364;2023-04-29T04:01:12;19336.25;;;-141.84;100.00
15260;BME280;34462;51.368;12.364;2023-04-29T04:03:41;19330.16;;;-141.84;100.00
15260;BME280;34462;51.368;12.364;2023-04-29T04:06:10;19336.25;;;-141.84;99.70
15260;BME280;34462;51.368;12.364;2023-04-29T04:08:38;19317.97;;;-141.84;99.82
15260;BME280;34462;51.368;12.364;2023-04-29T04:11:07;19322.03;;;-141.84;99.52
15260;BME280;34462;51.368;12.364;2023-04-29T04:13:37;19344.41;;;-141.84;99.65
15260;BME280;34462;51.368;12.364;2023-04-29T04:16:06;19340.31;;;-141.84;99.87
15260;BME280;34462;51.368;12.364;2023-04-29T04:18:34;19309.84;;;-141.84;100.00
15260;BME280;34462;51.368;12.364;2023-04-29T04:21:05;19330.16;;;-141.84;100.00
15260;BME280;34462;51.368;12.364;2023-04-29T04:23:33;19322.03;;;-141.84;100.00
15260;BME280;34462;51.368;12.364;2023-04-29T04:26:01;19346.44;;;-141.84;100.00
15260;BME280;34462;51.368;12.364;2023-04-29T04:28:29;19334.22;;;-141.84;100.00
15260;BME280;34462;51.368;12.364;2023-04-29T04:30:59;19336.25;;;-141.84;100.00
15260;BME280;34462;51.368;12.364;2023-04-29T04:33:28;19330.16;;;-141.84;100.00
15260;BME280;34462;51.368;12.364;2023-04-29T04:35:56;19332.19;;;-141.84;100.00
15260;BME280;34462;51.368;12.364;2023-04-29T04:38:24;19317.97;;;-141.84;100.00
15260;BME280;34462;51.368;12.364;2023-04-29T04:40:53;19332.19;;;-141.84;100.00
15260;BME280;34462;51.368;12.364;2023-04-29T04:43:21;19334.22;;;-141.84;99.93
15260;BME280;34462;51.368;12.364;2023-04-29T04:45:49;19330.16;;;-141.84;99.91
15260;BME280;34462;51.368;12.364;2023-04-29T04:48:21;19317.97;;;-141.84;100.00
15260;BME280;34462;51.368;12.364;2023-04-29T04:50:49;19330.16;;;-141.84;100.00
15260;BME280;34462;51.368;12.364;2023-04-29T04:53:17;19350.50;;;-141.84;99.97
15260;BME280;34462;51.368;12.364;2023-04-29T04:55:45;19350.50;;;-141.84;99.46
15260;BME280;34462;51.368;12.364;2023-04-29T04:58:13;19413.47;;;-141.84;98.41
15260;BME280;34462;51.368;12.364;2023-04-29T05:00:44;19374.88;;;-141.84;97.36
15260;BME280;34462;51.368;12.364;2023-04-29T05:03:12;19383.00;;;-141.84;96.40
15260;BME280;34462;51.368;12.364;2023-04-29T05:05:43;19403.31;;;-141.84;96.26
15260;BME280;34462;51.368;12.364;2023-04-29T05:08:11;19395.19;;;-141.84;95.89
15260;BME280;34462;51.368;12.364;2023-04-29T05:10:40;19462.25;;;-141.84;95.34
15260;BME280;34462;51.368;12.364;2023-04-29T05:13:10;19448.03;;;-141.84;94.35
15260;BME280;34462;51.368;12.364;2023-04-29T05:15:38;19441.94;;;-141.84;93.66
15260;BME280;34462;51.368;12.364;2023-04-29T05:18:06;19443.97;;;-141.84;93.16
15260;BME280;34462;51.368;12.364;2023-04-29T05:20:35;19435.84;;;-141.84;93.56
15260;BME280;34462;51.368;12.364;2023-04-29T05:23:04;19464.28;;;-141.84;93.59
15260;BME280;34462;51.368;12.364;2023-04-29T05:25:33;19462.25;;;-141.84;93.26
15260;BME280;34462;51.368;12.364;2023-04-29T05:28:01;19466.31;;;-141.84;93.06
15260;BME280;34462;51.368;12.364;2023-04-29T05:30:30;19474.44;;;-141.84;92.14
15260;BME280;34462;51.368;12.364;2023-04-29T05:32:58;19464.28;;;-141.84;91.94
15260;BME280;34462;51.368;12.364;2023-04-29T05:35:27;19474.44;;;-141.84;92.29
15260;BME280;34462;51.368;12.364;2023-04-29T05:37:55;19472.41;;;-141.84;92.65
15260;BME280;34462;51.368;12.364;2023-04-29T05:40:25;19498.84;;;-141.84;91.58
15260;BME280;34462;51.368;12.364;2023-04-29T05:42:53;19498.84;;;-141.84;90.73
15260;BME280;34462;51.368;12.364;2023-04-29T05:45:21;19535.41;;;-141.84;90.62
15260;BME280;34462;51.368;12.364;2023-04-29T05:47:49;19509.00;;;-141.84;90.29
15260;BME280;34462;51.368;12.364;2023-04-29T05:50:20;19555.75;;;-141.84;90.24
15260;BME280;34462;51.368;12.364;2023-04-29T05:52:48;19561.84;;;-141.84;89.16
15260;BME280;34462;51.368;12.364;2023-04-29T05:55:18;19572.00;;;-141.84;88.72
15260;BME280;34462;51.368;12.364;2023-04-29T05:57:47;19565.91;;;-141.84;88.33
15260;BME280;34462;51.368;12.364;2023-04-29T06:00:20;19622.81;;;-141.84;87.07
15260;BME280;34462;51.368;12.364;2023-04-29T06:02:48;19618.75;;;-141.84;86.35
15260;BME280;34462;51.368;12.364;2023-04-29T06:05:25;19643.13;;;-141.84;85.99
15260;BME280;34462;51.368;12.364;2023-04-29T06:07:54;19657.34;;;-141.84;86.07
15260;BME280;34462;51.368;12.364;2023-04-29T06:10:23;19693.94;;;-141.84;83.74
15260;BME280;34462;51.368;12.364;2023-04-29T06:12:53;19702.06;;;-141.84;83.48
15260;BME280;34462;51.368;12.364;2023-04-29T06:15:21;19700.03;;;-141.84;83.36
15260;BME280;34462;51.368;12.364;2023-04-29T06:17:49;19700.03;;;-141.84;83.89
15260;BME280;34462;51.368;12.364;2023-04-29T06:20:18;19708.16;;;-141.84;83.73
15260;BME280;34462;51.368;12.364;2023-04-29T06:22:46;19689.88;;;-141.84;81.62
15260;BME280;34462;51.368;12.364;2023-04-29T06:25:15;19740.69;;;-141.84;81.85
15260;BME280;34462;51.368;12.364;2023-04-29T06:27:43;19732.53;;;-141.84;81.95
15260;BME280;34462;51.368;12.364;2023-04-29T06:30:13;19740.69;;;-141.84;82.39
15260;BME280;34462;51.368;12.364;2023-04-29T06:32:41;19738.66;;;-141.84;81.99
15260;BME280;34462;51.368;12.364;2023-04-29T06:35:09;19748.81;;;-141.84;81.50
15260;BME280;34462;51.368;12.364;2023-04-29T06:37:37;19781.31;;;-141.84;81.37
15260;BME280;34462;51.368;12.364;2023-04-29T06:40:07;19789.44;;;-141.84;80.78
15260;BME280;34462;51.368;12.364;2023-04-29T06:42:36;19771.16;;;-141.84;79.69
15260;BME280;34462;51.368;12.364;2023-04-29T06:45:06;19771.16;;;-141.84;80.03
15260;BME280;34462;51.368;12.364;2023-04-29T06:47:36;19807.75;;;-141.84;79.19
15260;BME280;34462;51.368;12.364;2023-04-29T06:50:05;19830.09;;;-141.84;78.86
15260;BME280;34462;51.368;12.364;2023-04-29T06:52:33;19828.06;;;-141.84;77.34
15260;BME280;34462;51.368;12.364;2023-04-29T06:55:03;19862.63;;;-141.84;76.99
15260;BME280;34462;51.368;12.364;2023-04-29T06:57:31;19856.53;;;-141.84;75.98
15260;BME280;34462;51.368;12.364;2023-04-29T06:59:59;19848.38;;;-141.84;75.82
15260;BME280;34462;51.368;12.364;2023-04-29T07:02:27;19864.66;;;-141.84;75.47
15260;BME280;34462;51.368;12.364;2023-04-29T07:04:57;19854.50;;;-141.84;76.07
15260;BME280;34462;51.368;12.364;2023-04-29T07:07:25;19866.69;;;-141.84;75.94
15260;BME280;34462;51.368;12.364;2023-04-29T07:09:54;19860.59;;;-141.84;75.20
15260;BME280;34462;51.368;12.364;2023-04-29T07:12:22;19887.00;;;-141.84;75.10
15260;BME280;34462;51.368;12.364;2023-04-29T07:14:50;19899.19;;;-141.84;74.84
15260;BME280;34462;51.368;12.364;2023-04-29T07:17:19;19913.44;;;-141.84;74.45
15260;BME280;34462;51.368;12.364;2023-04-29T07:19:47;19943.91;;;-141.84;73.31
15260;BME280;34462;51.368;12.364;2023-04-29T07:22:17;19974.41;;;-141.84;72.52
15260;BME280;34462;51.368;12.364;2023-04-29T07:24:45;19935.78;;;-141.84;73.34
15260;BME280;34462;51.368;12.364;2023-04-29T07:27:14;19972.38;;;-141.84;72.43
15260;BME280;34462;51.368;12.364;2023-04-29T07:29:46;19972.38;;;-141.84;72.29
15260;BME280;34462;51.368;12.364;2023-04-29T07:32:20;19958.13;;;-141.84;72.67
15260;BME280;34462;51.368;12.364;2023-04-29T07:34:48;19958.13;;;-141.84;73.23
15260;BME280;34462;51.368;12.364;2023-04-29T07:37:22;19933.75;;;-141.84;73.72
15260;BME280;34462;51.368;12.364;2023-04-29T07:39:50;19923.59;;;-141.84;73.84
15260;BME280;34462;51.368;12.364;2023-04-29T07:42:20;19909.34;;;-141.84;74.28
15260;BME280;34462;51.368;12.364;2023-04-29T07:44:49;19903.25;;;-141.84;74.50
15260;BME280;34462;51.368;12.364;2023-04-29T07:47:20;19927.66;;;-141.84;74.60
15260;BME280;34462;51.368;12.364;2023-04-29T07:49:48;19968.31;;;-141.84;74.76
15260;BME280;34462;51.368;12.364;2023-04-29T07:52:17;19972.38;;;-141.84;73.04
15260;BME280;34462;51.368;12.364;2023-04-29T07:54:46;20057.72;;;-141.84;70.62
15260;BME280;34462;51.368;12.364;2023-04-29T07:57:15;20057.72;;;-141.84;71.03
15260;BME280;34462;51.368;12.364;2023-04-29T07:59:43;20033.34;;;-141.84;70.44
15260;BME280;34462;51.368;12.364;2023-04-29T08:02:11;20017.09;;;-141.84;70.38
15260;BME280;34462;51.368;12.364;2023-04-29T08:04:42;20008.94;;;-141.84;71.48
15260;BME280;34462;51.368;12.364;2023-04-29T08:07:11;19988.63;;;-141.84;71.35
15260;BME280;34462;51.368;12.364;2023-04-29T08:09:40;19984.56;;;-141.84;71.32
15260;BME280;34462;51.368;12.364;2023-04-29T08:12:09;19996.75;;;-141.84;71.54
15260;BME280;34462;51.368;12.364;2023-04-29T08:14:37;19996.75;;;-141.84;71.32
15260;BME280;34462;51.368;12.364;2023-04-29T08:17:05;19978.47;;;-141.84;70.95
15260;BME280;34462;51.368;12.364;2023-04-29T08:19:34;19996.75;;;-141.84;71.06
15260;BME280;34462;51.368;12.364;2023-04-29T08:22:07;19984.56;;;-141.84;71.69
15260;BME280;34462;51.368;12.364;2023-04-29T08:24:37;19921.56;;;-141.84;72.81
15260;BME280;34462;51.368;12.364;2023-04-29T08:27:05;19978.47;;;-141.84;72.49
15260;BME280;34462;51.368;12.364;2023-04-29T08:29:34;20035.38;;;-141.84;71.22
15260;BME280;34462;51.368;12.364;2023-04-29T08:32:03;20004.88;;;-141.84;71.05
15260;BME280;34462;51.368;12.364;2023-04-29T08:34:32;20071.97;;;-141.84;69.74
15260;BME280;34462;51.368;12.364;2023-04-29T08:37:02;20126.84;;;-141.84;68.71
15260;BME280;34462;51.368;12.364;2023-04-29T08:39:30;20134.97;;;-141.84;67.34
15260;BME280;34462;51.368;12.364;2023-04-29T08:41:59;20110.56;;;-141.84;66.81
15260;BME280;34462;51.368;12.364;2023-04-29T08:44:30;20165.44;;;-141.84;66.43
15260;BME280;34462;51.368;12.364;2023-04-29T08:47:01;20149.19;;;-141.84;65.76
15260;BME280;34462;51.368;12.364;2023-04-29T08:49:30;20173.59;;;-141.84;66.94
15260;BME280;34462;51.368;12.364;2023-04-29T08:51:59;20092.28;;;-141.84;68.29
15260;BME280;34462;51.368;12.364;2023-04-29T08:54:29;20063.81;;;-141.84;69.26
15260;BME280;34462;51.368;12.364;2023-04-29T08:56:59;20049.59;;;-141.84;69.15
15260;BME280;34462;51.368;12.364;2023-04-29T08:59:29;20023.19;;;-141.84;70.16
15260;BME280;34462;51.368;12.364;2023-04-29T09:01:58;20019.13;;;-141.84;69.35
15260;BME280;34462;51.368;12.364;2023-04-29T09:04:41;19992.69;;;-141.84;70.06
15260;BME280;34462;51.368;12.364;2023-04-29T09:07:15;20000.81;;;-141.84;69.23
15260;BME280;34462;51.368;12.364;2023-04-29T09:09:44;20049.59;;;-141.84;69.23
15260;BME280;34462;51.368;12.364;2023-04-29T09:12:13;20074.00;;;-141.84;67.83
15260;BME280;34462;51.368;12.364;2023-04-29T09:14:41;20118.69;;;-141.84;66.82
15260;BME280;34462;51.368;12.364;2023-04-29T09:17:10;20161.38;;;-141.84;66.60
15260;BME280;34462;51.368;12.364;2023-04-29T09:19:39;20189.84;;;-141.84;66.79
15260;BME280;34462;51.368;12.364;2023-04-29T09:22:08;20104.47;;;-141.84;67.42
15260;BME280;34462;51.368;12.364;2023-04-29T09:24:36;20069.94;;;-141.84;67.73
15260;BME280;34462;51.368;12.364;2023-04-29T09:27:05;20049.59;;;-141.84;68.24
15260;BME280;34462;51.368;12.364;2023-04-29T09:29:35;20102.44;;;-141.84;67.89
15260;BME280;34462;51.368;12.364;2023-04-29T09:32:18;20037.41;;;-141.84;68.63
15260;BME280;34462;51.368;12.364;2023-04-29T09:34:48;20023.19;;;-141.84;68.65
15260;BME280;34462;51.368;12.364;2023-04-29T09:37:24;20078.06;;;-141.84;68.13
15260;BME280;34462;51.368;12.364;2023-04-29T09:39:53;20120.75;;;-141.84;66.81
15260;BME280;34462;51.368;12.364;2023-04-29T09:42:22;20208.13;;;-141.84;65.52
15260;BME280;34462;51.368;12.364;2023-04-29T09:44:50;20258.94;;;-141.84;63.59
15260;BME280;34462;51.368;12.364;2023-04-29T09:47:29;20218.31;;;-141.84;65.00
15260;BME280;34462;51.368;12.364;2023-04-29T09:50:11;20143.09;;;-141.84;65.93
15260;BME280;34462;51.368;12.364;2023-04-29T09:52:50;20149.19;;;-141.84;67.45
15260;BME280;34462;51.368;12.364;2023-04-29T09:55:21;20110.56;;;-141.84;67.08
15260;BME280;34462;51.368;12.364;2023-04-29T09:57:50;20114.63;;;-141.84;67.52
15260;BME280;34462;51.368;12.364;2023-04-29T10:00:18;20069.94;;;-141.84;66.85
15260;BME280;34462;51.368;12.364;2023-04-29T10:02:48;20061.78;;;-141.84;67.17
15260;BME280;34462;51.368;12.364;2023-04-29T10:05:20;20035.38;;;-141.84;67.77
15260;BME280;34462;51.368;12.364;2023-04-29T10:07:50;19992.69;;;-141.84;68.87
15260;BME280;34462;51.368;12.364;2023-04-29T10:10:21;19978.47;;;-141.84;70.39
15260;BME280;34462;51.368;12.364;2023-04-29T10:12:52;19945.94;;;-141.84;70.93
15260;BME280;34462;51.368;12.364;2023-04-29T10:15:28;19935.78;;;-141.84;71.08
15260;BME280;34462;51.368;12.364;2023-04-29T10:18:13;19919.53;;;-141.84;71.67
15260;BME280;34462;51.368;12.364;2023-04-29T10:20:47;19968.31;;;-141.84;71.40
15260;BME280;34462;51.368;12.364;2023-04-29T10:23:20;19984.56;;;-141.84;69.90
15260;BME280;34462;51.368;12.364;2023-04-29T10:25:51;20035.38;;;-141.84;68.19
15260;BME280;34462;51.368;12.364;2023-04-29T10:28:22;20116.66;;;-141.84;65.73
15260;BME280;34462;51.368;12.364;2023-04-29T10:30:53;20132.94;;;-141.84;65.86
15260;BME280;34462;51.368;12.364;2023-04-29T10:33:24;20114.63;;;-141.84;67.19
15260;BME280;34462;51.368;12.364;2023-04-29T10:35:58;20049.59;;;-141.84;67.54
15260;BME280;34462;51.368;12.364;2023-04-29T10:38:34;20047.56;;;-141.84;68.37
15260;BME280;34462;51.368;12.364;2023-04-29T10:41:15;20023.19;;;-141.84;68.03
15260;BME280;34462;51.368;12.364;2023-04-29T10:43:46;19998.78;;;-141.84;68.42
15260;BME280;34462;51.368;12.364;2023-04-29T10:46:20;19925.63;;;-141.84;69.76
15260;BME280;34462;51.368;12.364;2023-04-29T10:48:54;19972.38;;;-141.84;70.58
15260;BME280;34462;51.368;12.364;2023-04-29T10:51:32;19923.59;;;-141.84;71.49
15260;BME280;34462;51.368;12.364;2023-04-29T10:54:06;19941.88;;;-141.84;71.75
15260;BME280;34462;51.368;12.364;2023-04-29T10:56:36;19915.47;;;-141.84;72.48
15260;BME280;34462;51.368;12.364;2023-04-29T10:59:08;19905.28;;;-141.84;71.44
15260;BME280;34462;51.368;12.364;2023-04-29T11:01:47;19874.81;;;-141.84;72.15
15260;BME280;34462;51.368;12.364;2023-04-29T11:04:16;19903.25;;;-141.84;71.11
15260;BME280;34462;51.368;12.364;2023-04-29T11:06:51;19901.22;;;-141.84;70.56
15260;BME280;34462;51.368;12.364;2023-04-29T11:09:24;19895.13;;;-141.84;70.98
15260;BME280;34462;51.368;12.364;2023-04-29T11:12:00;19923.59;;;-141.84;70.18
15260;BME280;34462;51.368;12.364;2023-04-29T11:14:34;19899.19;;;-141.84;70.20
15260;BME280;34462;51.368;12.364;2023-04-29T11:17:08;19929.69;;;-141.84;69.98
15260;BME280;34462;51.368;12.364;2023-04-29T11:19:41;19919.53;;;-141.84;69.95
15260;BME280;34462;51.368;12.364;2023-04-29T11:22:23;19941.88;;;-141.84;68.79
15260;BME280;34462;51.368;12.364;2023-04-29T11:24:55;19994.72;;;-141.84;67.56
15260;BME280;34462;51.368;12.364;2023-04-29T11:27:28;20037.41;;;-141.84;66.26
15260;BME280;34462;51.368;12.364;2023-04-29T11:29:58;20053.66;;;-141.84;65.58
15260;BME280;34462;51.368;12.364;2023-04-29T11:32:28;20084.16;;;-141.84;65.56
15260;BME280;34462;51.368;12.364;2023-04-29T11:35:08;20061.78;;;-141.84;64.95
15260;BME280;34462;51.368;12.364;2023-04-29T11:37:39;20063.81;;;-141.84;65.49
15260;BME280;34462;51.368;12.364;2023-04-29T11:40:10;20059.75;;;-141.84;66.17
15260;BME280;34462;51.368;12.364;2023-04-29T11:42:42;20067.88;;;-141.84;66.64
15260;BME280;34462;51.368;12.364;2023-04-29T11:45:11;19984.56;;;-141.84;67.48
15260;BME280;34462;51.368;12.364;2023-04-29T11:47:43;19972.38;;;-141.84;68.46
15260;BME280;34462;51.368;12.364;2023-04-29T11:50:13;19994.72;;;-141.84;68.77
15260;BME280;34462;51.368;12.364;2023-04-29T11:52:46;19935.78;;;-141.84;69.70
15260;BME280;34462;51.368;12.364;2023-04-29T11:55:15;19984.56;;;-141.84;68.83
15260;BME280;34462;51.368;12.364;2023-04-29T11:57:43;20017.09;;;-141.84;68.34
15260;BME280;34462;51.368;12.364;2023-04-29T12:00:13;19964.25;;;-141.84;68.33
15260;BME280;34462;51.368;12.364;2023-04-29T12:02:44;19976.44;;;-141.84;68.97
15260;BME280;34462;51.368;12.364;2023-04-29T12:05:14;20015.03;;;-141.84;68.12
15260;BME280;34462;51.368;12.364;2023-04-29T12:07:45;19990.66;;;-141.84;67.70
15260;BME280;34462;51.368;12.364;2023-04-29T12:10:13;19941.88;;;-141.84;67.69
15260;BME280;34462;51.368;12.364;2023-04-29T12:12:42;19998.78;;;-141.84;66.99
15260;BME280;34462;51.368;12.364;2023-04-29T12:15:12;20010.97;;;-141.84;66.64
15260;BME280;34462;51.368;12.364;2023-04-29T12:17:41;20082.13;;;-141.84;65.35
15260;BME280;34462;51.368;12.364;2023-04-29T12:20:12;20090.25;;;-141.84;65.32
15260;BME280;34462;51.368;12.364;2023-04-29T12:22:41;20110.56;;;-141.84;65.02
15260;BME280;34462;51.368;12.364;2023-04-29T12:25:12;20169.53;;;-141.84;64.14
15260;BME280;34462;51.368;12.364;2023-04-29T12:27:40;20236.59;;;-141.84;62.59
15260;BME280;34462;51.368;12.364;2023-04-29T12:30:10;20226.44;;;-141.84;62.59
15260;BME280;34462;51.368;12.364;2023-04-29T12:32:39;20238.63;;;-141.84;62.22
15260;BME280;34462;51.368;12.364;2023-04-29T12:35:14;20305.69;;;-141.84;60.10
15260;BME280;34462;51.368;12.364;2023-04-29T12:37:47;20301.63;;;-141.84;60.15
15260;BME280;34462;51.368;12.364;2023-04-29T12:40:18;20378.88;;;-141.84;59.39
15260;BME280;34462;51.368;12.364;2023-04-29T12:42:47;20346.34;;;-141.84;58.85